PAA8PZ LRTR-LROP
Flight info
| Callsign | PAA8PZ |
|---|---|
| Flight time | 0h 40m |
| Altitude | 23000 |
| Route | DITAX DCT LAMIT DCT TOSVI |
| Aircraft | A320/M-SDE3FGHIRWY/LB1 |
Departure
| Time | 2026-04-22 16:24 |
|---|---|
| Airport | Timișoara Traian Vuia International Airport (LRTR) |
Arrival
| Time | 2026-04-22 17:05 |
|---|---|
| Airport | Bucharest Henri Coandă International Airport (LROP) |
| Time | Latitude | Longitude | Altitude | Speed | Heading |
|---|---|---|---|---|---|
| 2026-04-22 15:55 | 45.81046 | 21.32184 | 351 ft | 0 kts | 199° |
| 2026-04-22 16:13 | 45.81052 | 21.32187 | 342 ft | 4 kts | 201° |
| 2026-04-22 16:13 | 45.81076 | 21.32204 | 353 ft | 4 kts | 219° |
| 2026-04-22 16:14 | 45.81083 | 21.32213 | 353 ft | 0 kts | 231° |
| 2026-04-22 16:14 | 45.81083 | 21.32212 | 342 ft | 0 kts | 231° |
| 2026-04-22 16:14 | 45.81081 | 21.32210 | 342 ft | 0 kts | 231° |
| 2026-04-22 16:15 | 45.81087 | 21.32219 | 349 ft | 2 kts | 195° |
| 2026-04-22 16:15 | 45.81102 | 21.32218 | 344 ft | 2 kts | 128° |
| 2026-04-22 16:15 | 45.81103 | 21.32217 | 345 ft | 0 kts | 126° |
| 2026-04-22 16:17 | 45.81098 | 21.32228 | 345 ft | 3 kts | 126° |
| 2026-04-22 16:17 | 45.81083 | 21.32272 | 350 ft | 6 kts | 108° |
| 2026-04-22 16:17 | 45.81067 | 21.32340 | 344 ft | 8 kts | 110° |
| 2026-04-22 16:17 | 45.81050 | 21.32430 | 342 ft | 10 kts | 82° |
| 2026-04-22 16:18 | 45.81092 | 21.32488 | 344 ft | 9 kts | 75° |
| 2026-04-22 16:18 | 45.81072 | 21.32589 | 343 ft | 13 kts | 109° |
| 2026-04-22 16:18 | 45.81039 | 21.32721 | 350 ft | 15 kts | 110° |
| 2026-04-22 16:18 | 45.81001 | 21.32872 | 342 ft | 17 kts | 109° |
| 2026-04-22 16:19 | 45.80957 | 21.33044 | 346 ft | 19 kts | 111° |
| 2026-04-22 16:19 | 45.80919 | 21.33196 | 346 ft | 17 kts | 108° |
| 2026-04-22 16:19 | 45.80878 | 21.33365 | 350 ft | 16 kts | 110° |
| 2026-04-22 16:19 | 45.80877 | 21.33499 | 350 ft | 13 kts | 47° |
| 2026-04-22 16:20 | 45.80960 | 21.33563 | 343 ft | 15 kts | 19° |
| 2026-04-22 16:20 | 45.81011 | 21.33677 | 346 ft | 16 kts | 104° |
| 2026-04-22 16:20 | 45.80970 | 21.33835 | 346 ft | 18 kts | 109° |
| 2026-04-22 16:20 | 45.80926 | 21.34015 | 347 ft | 21 kts | 110° |
| 2026-04-22 16:21 | 45.80873 | 21.34224 | 339 ft | 24 kts | 110° |
| 2026-04-22 16:21 | 45.80812 | 21.34465 | 339 ft | 26 kts | 110° |
| 2026-04-22 16:21 | 45.80749 | 21.34718 | 337 ft | 28 kts | 112° |
| 2026-04-22 16:21 | 45.80683 | 21.34976 | 350 ft | 28 kts | 109° |
| 2026-04-22 16:22 | 45.80553 | 21.35499 | 344 ft | 29 kts | 110° |
| 2026-04-22 16:22 | 45.80494 | 21.35752 | 343 ft | 20 kts | 94° |
| 2026-04-22 16:22 | 45.80495 | 21.35873 | 341 ft | 8 kts | 112° |
| 2026-04-22 16:23 | 45.80467 | 21.35841 | 344 ft | 5 kts | 289° |
| 2026-04-22 16:23 | 45.80473 | 21.35815 | 347 ft | 0 kts | 289° |
| 2026-04-22 16:23 | 45.80478 | 21.35795 | 346 ft | 11 kts | 289° |
| 2026-04-22 16:24 | 45.80588 | 21.35358 | 348 ft | 80 kts | 289° |
| 2026-04-22 16:24 | 45.81190 | 21.32956 | 562 ft | 154 kts | 292° |
| 2026-04-22 16:24 | 45.81560 | 21.31482 | 1077 ft | 160 kts | 293° |
| 2026-04-22 16:25 | 45.81939 | 21.29970 | 1743 ft | 160 kts | 294° |
| 2026-04-22 16:25 | 45.82741 | 21.26803 | 2568 ft | 188 kts | 294° |
| 2026-04-22 16:25 | 45.83219 | 21.24922 | 2883 ft | 210 kts | 293° |
| 2026-04-22 16:26 | 45.83511 | 21.22765 | 3309 ft | 237 kts | 268° |
| 2026-04-22 16:26 | 45.82870 | 21.20463 | 3750 ft | 265 kts | 230° |
| 2026-04-22 16:26 | 45.81292 | 21.19039 | 4496 ft | 278 kts | 194° |
| 2026-04-22 16:26 | 45.79371 | 21.19119 | 5367 ft | 281 kts | 159° |
| 2026-04-22 16:27 | 45.77792 | 21.20685 | 6243 ft | 278 kts | 124° |
| 2026-04-22 16:27 | 45.77136 | 21.22256 | 6815 ft | 277 kts | 111° |
| 2026-04-22 16:27 | 45.76506 | 21.24851 | 7692 ft | 277 kts | 102° |
| 2026-04-22 16:27 | 45.76020 | 21.27533 | 8587 ft | 279 kts | 101° |
| 2026-04-22 16:28 | 45.75524 | 21.30230 | 9453 ft | 282 kts | 102° |
| 2026-04-22 16:28 | 45.74962 | 21.32922 | 10276 ft | 285 kts | 105° |
| 2026-04-22 16:28 | 45.74312 | 21.35716 | 10592 ft | 307 kts | 107° |
| 2026-04-22 16:28 | 45.73558 | 21.38704 | 10781 ft | 330 kts | 108° |
| 2026-04-22 16:29 | 45.72722 | 21.41838 | 11245 ft | 341 kts | 108° |
| 2026-04-22 16:29 | 45.71846 | 21.45018 | 11916 ft | 346 kts | 109° |
| 2026-04-22 16:29 | 45.70946 | 21.48230 | 12617 ft | 349 kts | 109° |
| 2026-04-22 16:29 | 45.70034 | 21.51469 | 13290 ft | 353 kts | 109° |
| 2026-04-22 16:30 | 45.69426 | 21.53636 | 13742 ft | 356 kts | 109° |
| 2026-04-22 16:30 | 45.68187 | 21.58069 | 14558 ft | 360 kts | 108° |
| 2026-04-22 16:30 | 45.67272 | 21.61360 | 15154 ft | 364 kts | 109° |
| 2026-04-22 16:30 | 45.66335 | 21.64741 | 15718 ft | 367 kts | 110° |
| 2026-04-22 16:31 | 45.65388 | 21.68155 | 16291 ft | 371 kts | 110° |
| 2026-04-22 16:31 | 45.64430 | 21.71601 | 16878 ft | 375 kts | 109° |
| 2026-04-22 16:31 | 45.63462 | 21.75074 | 17472 ft | 378 kts | 110° |
| 2026-04-22 16:31 | 45.62480 | 21.78582 | 18066 ft | 382 kts | 110° |
| 2026-04-22 16:32 | 45.61485 | 21.82127 | 18621 ft | 386 kts | 110° |
| 2026-04-22 16:32 | 45.60485 | 21.85694 | 19190 ft | 389 kts | 110° |
| 2026-04-22 16:32 | 45.59475 | 21.89294 | 19768 ft | 392 kts | 110° |
| 2026-04-22 16:32 | 45.58456 | 21.92922 | 20349 ft | 395 kts | 110° |
| 2026-04-22 16:33 | 45.57432 | 21.96568 | 20913 ft | 398 kts | 110° |
| 2026-04-22 16:33 | 45.56396 | 22.00247 | 21435 ft | 401 kts | 110° |
| 2026-04-22 16:33 | 45.55351 | 22.03964 | 21964 ft | 404 kts | 109° |
| 2026-04-22 16:33 | 45.54295 | 22.07702 | 22478 ft | 407 kts | 110° |
| 2026-04-22 16:34 | 45.53227 | 22.11466 | 22933 ft | 410 kts | 111° |
| 2026-04-22 16:34 | 45.52153 | 22.15251 | 23077 ft | 415 kts | 110° |
| 2026-04-22 16:34 | 45.51059 | 22.19107 | 23094 ft | 424 kts | 110° |
| 2026-04-22 16:34 | 45.49950 | 22.23010 | 23092 ft | 426 kts | 110° |
| 2026-04-22 16:35 | 45.48834 | 22.26922 | 23093 ft | 427 kts | 110° |
| 2026-04-22 16:35 | 45.47710 | 22.30844 | 23092 ft | 427 kts | 111° |
| 2026-04-22 16:35 | 45.46569 | 22.34762 | 23095 ft | 429 kts | 112° |
| 2026-04-22 16:35 | 45.45347 | 22.38592 | 23094 ft | 431 kts | 114° |
| 2026-04-22 16:36 | 45.44013 | 22.42475 | 23091 ft | 431 kts | 115° |
| 2026-04-22 16:36 | 45.42657 | 22.46272 | 23097 ft | 430 kts | 115° |
| 2026-04-22 16:36 | 45.41305 | 22.50011 | 23096 ft | 430 kts | 115° |
| 2026-04-22 16:36 | 45.39923 | 22.53859 | 23090 ft | 430 kts | 115° |
| 2026-04-22 16:37 | 45.38798 | 22.57719 | 23086 ft | 428 kts | 107° |
| 2026-04-22 16:37 | 45.37864 | 22.61746 | 23088 ft | 428 kts | 106° |
| 2026-04-22 16:37 | 45.36930 | 22.65771 | 23084 ft | 429 kts | 107° |
| 2026-04-22 16:37 | 45.35992 | 22.69803 | 23077 ft | 429 kts | 107° |
| 2026-04-22 16:38 | 45.35057 | 22.73826 | 23073 ft | 429 kts | 107° |
| 2026-04-22 16:38 | 45.34114 | 22.77874 | 23073 ft | 430 kts | 106° |
| 2026-04-22 16:38 | 45.33171 | 22.81911 | 23072 ft | 430 kts | 106° |
| 2026-04-22 16:38 | 45.32227 | 22.85934 | 23070 ft | 430 kts | 107° |
| 2026-04-22 16:39 | 45.31279 | 22.89970 | 23074 ft | 431 kts | 107° |
| 2026-04-22 16:39 | 45.30329 | 22.94010 | 23075 ft | 431 kts | 107° |
| 2026-04-22 16:39 | 45.29379 | 22.98050 | 23073 ft | 431 kts | 107° |
| 2026-04-22 16:39 | 45.28429 | 23.02093 | 23073 ft | 432 kts | 108° |
| 2026-04-22 16:40 | 45.27471 | 23.06145 | 23080 ft | 435 kts | 108° |
| 2026-04-22 16:40 | 45.26505 | 23.10210 | 23078 ft | 434 kts | 108° |
| 2026-04-22 16:40 | 45.24584 | 23.18260 | 23071 ft | 434 kts | 107° |
| 2026-04-22 16:41 | 45.23611 | 23.22327 | 23074 ft | 434 kts | 108° |
| 2026-04-22 16:41 | 45.22642 | 23.26385 | 23070 ft | 433 kts | 108° |
| 2026-04-22 16:41 | 45.21677 | 23.30426 | 23071 ft | 433 kts | 107° |
| 2026-04-22 16:41 | 45.20712 | 23.34482 | 23075 ft | 435 kts | 108° |
| 2026-04-22 16:42 | 45.19741 | 23.38547 | 23088 ft | 435 kts | 108° |
| 2026-04-22 16:42 | 45.18764 | 23.42621 | 23086 ft | 435 kts | 107° |
| 2026-04-22 16:42 | 45.17786 | 23.46691 | 23076 ft | 435 kts | 107° |
| 2026-04-22 16:42 | 45.16810 | 23.50746 | 23077 ft | 434 kts | 108° |
| 2026-04-22 16:43 | 45.15829 | 23.54795 | 23079 ft | 434 kts | 108° |
| 2026-04-22 16:43 | 45.14844 | 23.58831 | 23073 ft | 434 kts | 108° |
| 2026-04-22 16:43 | 45.13855 | 23.62884 | 23071 ft | 434 kts | 107° |
| 2026-04-22 16:43 | 45.12861 | 23.66933 | 23077 ft | 434 kts | 108° |
| 2026-04-22 16:44 | 45.11863 | 23.70911 | 23077 ft | 434 kts | 109° |
| 2026-04-22 16:44 | 45.10842 | 23.74925 | 23078 ft | 434 kts | 109° |
| 2026-04-22 16:44 | 45.09809 | 23.78948 | 23076 ft | 433 kts | 109° |
| 2026-04-22 16:44 | 45.08774 | 23.82959 | 23073 ft | 433 kts | 109° |
| 2026-04-22 16:45 | 45.07738 | 23.86966 | 23067 ft | 433 kts | 109° |
| 2026-04-22 16:45 | 45.06705 | 23.90971 | 23064 ft | 433 kts | 109° |
| 2026-04-22 16:45 | 45.05675 | 23.94970 | 23064 ft | 433 kts | 109° |
| 2026-04-22 16:45 | 45.04646 | 23.98965 | 23062 ft | 433 kts | 109° |
| 2026-04-22 16:46 | 45.03612 | 24.02978 | 23066 ft | 433 kts | 109° |
| 2026-04-22 16:46 | 45.02581 | 24.06977 | 23061 ft | 433 kts | 109° |
| 2026-04-22 16:46 | 45.01550 | 24.10972 | 23057 ft | 433 kts | 109° |
| 2026-04-22 16:46 | 45.00513 | 24.14982 | 23054 ft | 433 kts | 109° |
| 2026-04-22 16:47 | 44.99479 | 24.18973 | 23049 ft | 434 kts | 109° |
| 2026-04-22 16:47 | 44.98438 | 24.22979 | 23048 ft | 434 kts | 109° |
| 2026-04-22 16:47 | 44.97412 | 24.26923 | 22982 ft | 430 kts | 109° |
| 2026-04-22 16:47 | 44.96380 | 24.30874 | 22688 ft | 418 kts | 110° |
| 2026-04-22 16:48 | 44.95391 | 24.34650 | 22418 ft | 413 kts | 110° |
| 2026-04-22 16:48 | 44.94398 | 24.38441 | 22142 ft | 411 kts | 110° |
| 2026-04-22 16:48 | 44.93404 | 24.42234 | 21871 ft | 411 kts | 110° |
| 2026-04-22 16:48 | 44.92414 | 24.46005 | 21597 ft | 409 kts | 110° |
| 2026-04-22 16:49 | 44.91427 | 24.49761 | 21334 ft | 408 kts | 110° |
| 2026-04-22 16:49 | 44.90439 | 24.53518 | 21064 ft | 407 kts | 110° |
| 2026-04-22 16:49 | 44.89454 | 24.57245 | 20799 ft | 405 kts | 110° |
| 2026-04-22 16:49 | 44.88468 | 24.60962 | 20539 ft | 404 kts | 110° |
| 2026-04-22 16:50 | 44.87488 | 24.64656 | 20217 ft | 400 kts | 110° |
| 2026-04-22 16:50 | 44.86519 | 24.68310 | 19717 ft | 397 kts | 110° |
| 2026-04-22 16:50 | 44.85553 | 24.71955 | 19206 ft | 396 kts | 110° |
| 2026-04-22 16:50 | 44.84590 | 24.75582 | 18687 ft | 394 kts | 110° |
| 2026-04-22 16:51 | 44.83634 | 24.79180 | 18139 ft | 393 kts | 110° |
| 2026-04-22 16:51 | 44.82675 | 24.82778 | 17577 ft | 390 kts | 110° |
| 2026-04-22 16:51 | 44.81722 | 24.86342 | 17036 ft | 387 kts | 110° |
| 2026-04-22 16:51 | 44.80780 | 24.89871 | 16499 ft | 383 kts | 110° |
| 2026-04-22 16:52 | 44.79843 | 24.93368 | 15950 ft | 380 kts | 110° |
| 2026-04-22 16:52 | 44.78909 | 24.96847 | 15400 ft | 378 kts | 110° |
| 2026-04-22 16:52 | 44.77984 | 25.00295 | 14849 ft | 376 kts | 110° |
| 2026-04-22 16:52 | 44.77060 | 25.03725 | 14296 ft | 374 kts | 110° |
| 2026-04-22 16:53 | 44.76140 | 25.07139 | 13730 ft | 372 kts | 111° |
| 2026-04-22 16:53 | 44.75227 | 25.10527 | 13153 ft | 368 kts | 110° |
| 2026-04-22 16:53 | 44.74325 | 25.13870 | 12613 ft | 364 kts | 110° |
| 2026-04-22 16:53 | 44.73437 | 25.17149 | 12066 ft | 361 kts | 110° |
| 2026-04-22 16:54 | 44.72544 | 25.20430 | 11531 ft | 357 kts | 110° |
| 2026-04-22 16:54 | 44.71660 | 25.23679 | 10985 ft | 354 kts | 110° |
| 2026-04-22 16:54 | 44.70786 | 25.26897 | 10607 ft | 347 kts | 110° |
| 2026-04-22 16:54 | 44.69939 | 25.30010 | 10475 ft | 333 kts | 110° |
| 2026-04-22 16:55 | 44.69125 | 25.32990 | 10356 ft | 321 kts | 110° |
| 2026-04-22 16:55 | 44.68339 | 25.35865 | 10224 ft | 309 kts | 110° |
| 2026-04-22 16:55 | 44.67591 | 25.38605 | 10098 ft | 299 kts | 110° |
| 2026-04-22 16:55 | 44.66842 | 25.41344 | 9852 ft | 294 kts | 110° |
| 2026-04-22 16:56 | 44.66117 | 25.44002 | 9438 ft | 295 kts | 110° |
| 2026-04-22 16:56 | 44.65390 | 25.46666 | 9055 ft | 289 kts | 110° |
| 2026-04-22 16:56 | 44.64671 | 25.49293 | 8397 ft | 287 kts | 110° |
| 2026-04-22 16:56 | 44.63957 | 25.51888 | 7786 ft | 284 kts | 110° |
| 2026-04-22 16:57 | 44.63250 | 25.54443 | 7240 ft | 279 kts | 110° |
| 2026-04-22 16:57 | 44.62554 | 25.56963 | 6701 ft | 275 kts | 109° |
| 2026-04-22 16:57 | 44.61859 | 25.59485 | 6352 ft | 275 kts | 109° |
| 2026-04-22 16:57 | 44.61175 | 25.61970 | 6020 ft | 271 kts | 109° |
| 2026-04-22 16:58 | 44.60725 | 25.63602 | 5624 ft | 269 kts | 110° |
| 2026-04-22 16:58 | 44.59828 | 25.66863 | 4815 ft | 266 kts | 110° |
| 2026-04-22 16:58 | 44.59178 | 25.69220 | 4589 ft | 251 kts | 110° |
| 2026-04-22 16:58 | 44.58556 | 25.71464 | 4466 ft | 242 kts | 110° |
| 2026-04-22 16:59 | 44.57958 | 25.73616 | 4361 ft | 232 kts | 110° |
| 2026-04-22 16:59 | 44.57383 | 25.75677 | 4259 ft | 221 kts | 109° |
| 2026-04-22 16:59 | 44.56829 | 25.77660 | 4164 ft | 216 kts | 109° |
| 2026-04-22 16:59 | 44.56283 | 25.79619 | 4073 ft | 215 kts | 109° |
| 2026-04-22 17:00 | 44.55788 | 25.81531 | 3982 ft | 203 kts | 100° |
| 2026-04-22 17:00 | 44.55872 | 25.85309 | 3643 ft | 193 kts | 82° |
| 2026-04-22 17:00 | 44.56022 | 25.87180 | 3392 ft | 193 kts | 82° |
| 2026-04-22 17:01 | 44.56168 | 25.89040 | 3140 ft | 191 kts | 83° |
| 2026-04-22 17:01 | 44.56308 | 25.90840 | 2904 ft | 179 kts | 83° |
| 2026-04-22 17:01 | 44.56436 | 25.92498 | 2666 ft | 160 kts | 83° |
| 2026-04-22 17:01 | 44.56550 | 25.93963 | 2438 ft | 144 kts | 82° |
| 2026-04-22 17:02 | 44.56656 | 25.95332 | 2247 ft | 140 kts | 83° |
| 2026-04-22 17:02 | 44.56760 | 25.96677 | 2058 ft | 138 kts | 83° |
| 2026-04-22 17:02 | 44.56864 | 25.98013 | 1870 ft | 138 kts | 82° |
| 2026-04-22 17:02 | 44.56966 | 25.99342 | 1687 ft | 137 kts | 83° |
| 2026-04-22 17:03 | 44.57068 | 26.00665 | 1492 ft | 136 kts | 82° |
| 2026-04-22 17:03 | 44.57171 | 26.01989 | 1294 ft | 136 kts | 83° |
| 2026-04-22 17:03 | 44.57276 | 26.03314 | 1054 ft | 136 kts | 83° |
| 2026-04-22 17:03 | 44.57375 | 26.04637 | 885 ft | 137 kts | 84° |
| 2026-04-22 17:04 | 44.57475 | 26.05946 | 693 ft | 135 kts | 82° |
| 2026-04-22 17:04 | 44.57575 | 26.07272 | 493 ft | 135 kts | 84° |
| 2026-04-22 17:04 | 44.57672 | 26.08552 | 344 ft | 133 kts | 83° |
| 2026-04-22 17:04 | 44.57759 | 26.09671 | 319 ft | 93 kts | 84° |
| 2026-04-22 17:05 | 44.57810 | 26.10330 | 324 ft | 44 kts | 83° |
| 2026-04-22 17:05 | 44.57840 | 26.10741 | 317 ft | 35 kts | 86° |
| 2026-04-22 17:05 | 44.57803 | 26.10999 | 310 ft | 26 kts | 120° |
| 2026-04-22 17:05 | 44.57752 | 26.11145 | 312 ft | 16 kts | 133° |
| 2026-04-22 17:06 | 44.57690 | 26.11073 | 313 ft | 14 kts | 253° |
| 2026-04-22 17:06 | 44.57680 | 26.10928 | 314 ft | 16 kts | 265° |
| 2026-04-22 17:06 | 44.57666 | 26.10760 | 314 ft | 18 kts | 264° |
| 2026-04-22 17:06 | 44.57654 | 26.10584 | 319 ft | 17 kts | 264° |
| 2026-04-22 17:07 | 44.57640 | 26.10411 | 320 ft | 19 kts | 263° |
| 2026-04-22 17:07 | 44.57625 | 26.10212 | 320 ft | 22 kts | 264° |
| 2026-04-22 17:07 | 44.57609 | 26.10004 | 323 ft | 18 kts | 264° |
| 2026-04-22 17:07 | 44.57587 | 26.09848 | 319 ft | 18 kts | 233° |
| 2026-04-22 17:08 | 44.57470 | 26.09841 | 319 ft | 15 kts | 174° |
| 2026-04-22 17:08 | 44.57346 | 26.09860 | 315 ft | 20 kts | 174° |
| 2026-04-22 17:08 | 44.57188 | 26.09883 | 312 ft | 24 kts | 174° |
| 2026-04-22 17:08 | 44.57083 | 26.09899 | 313 ft | 11 kts | 174° |
| 2026-04-22 17:09 | 44.57020 | 26.09850 | 313 ft | 12 kts | 257° |
| 2026-04-22 17:09 | 44.56998 | 26.09796 | 313 ft | 6 kts | 191° |
| 2026-04-22 17:09 | 44.56966 | 26.09802 | 313 ft | 7 kts | 173° |
| 2026-04-22 17:09 | 44.56960 | 26.09803 | 313 ft | 0 kts | 173° |